Time;durP1;ratioP1;P1;durP2;ratioP2;P2;SDS_P1;SDS_P2;PMS_P1;PMS_P2;Temp;Humidity;BMP_temperature;BMP_pressure;BME280_temperature;BME280_humidity;BME280_pressure;Samples;Min_cycle;Max_cycle;Signal;HPM_P1;HPM_P2
2023/08/07 00:00:11;;;;;;;3.93;1.60;;;;;;;15.61;61.74;97304.03;5090220;28;20750;-68
2023/08/07 00:02:36;;;;;;;5.80;1.77;;;;;;;15.60;61.84;97299.75;5090321;28;20809;-67
2023/08/07 00:05:01;;;;;;;3.03;1.43;;;;;;;15.62;61.54;97304.88;5089407;28;20453;-68
2023/08/07 00:07:27;;;;;;;2.97;1.63;;;;;;;15.59;61.66;97305.22;5090338;28;20184;-68
2023/08/07 00:09:52;;;;;;;4.87;1.63;;;;;;;15.61;61.45;97298.75;5089971;28;20700;-67
2023/08/07 00:12:18;;;;;;;3.40;1.40;;;;;;;15.64;61.48;97305.50;5087247;28;20607;-69
2023/08/07 00:14:43;;;;;;;1.90;1.80;;;;;;;15.62;61.68;97312.81;5090105;28;20604;-68
2023/08/07 00:17:09;;;;;;;2.60;1.77;;;;;;;15.65;61.54;97312.41;5089200;28;20678;-68
2023/08/07 00:19:34;;;;;;;3.00;1.80;;;;;;;15.60;61.40;97314.78;5087104;28;20556;-69
2023/08/07 00:22:00;;;;;;;1.97;1.40;;;;;;;15.59;61.52;97313.97;5087733;28;20194;-70
2023/08/07 00:24:25;;;;;;;3.80;1.50;;;;;;;15.65;61.17;97315.88;5089822;28;20177;-68
2023/08/07 00:26:50;;;;;;;3.43;1.60;;;;;;;15.64;61.17;97321.34;5087776;28;20708;-68
2023/08/07 00:29:16;;;;;;;2.53;1.60;;;;;;;15.60;61.54;97317.44;5092119;28;20354;-68
2023/08/07 00:31:41;;;;;;;2.90;1.73;;;;;;;15.56;61.25;97324.91;5090582;28;20217;-68
2023/08/07 00:34:07;;;;;;;3.43;1.40;;;;;;;15.55;61.26;97328.56;5090012;28;20265;-69
2023/08/07 00:36:34;;;;;;;3.70;1.67;;;;;;;15.54;61.05;97329.56;5090099;28;20202;-70
2023/08/07 00:39:00;;;;;;;2.53;1.40;;;;;;;15.59;61.01;97329.00;5088113;28;20602;-68
2023/08/07 00:41:26;;;;;;;5.40;1.70;;;;;;;15.60;60.75;97333.28;5093954;28;20876;-68
2023/08/07 00:43:51;;;;;;;3.27;1.60;;;;;;;15.61;61.05;97330.44;5089967;28;20436;-68
2023/08/07 00:46:17;;;;;;;1.63;1.30;;;;;;;15.63;60.87;97335.53;5090295;28;20186;-68
2023/08/07 00:48:43;;;;;;;2.60;1.43;;;;;;;15.66;60.92;97340.47;5096105;28;20761;-69
2023/08/07 00:51:08;;;;;;;2.17;1.73;;;;;;;15.68;60.75;97341.13;5088525;28;20482;-67
2023/08/07 00:53:38;;;;;;;5.73;1.70;;;;;;;15.67;60.73;97342.13;5088653;28;20265;-70
2023/08/07 00:56:03;;;;;;;1.50;1.37;;;;;;;15.69;60.99;97332.19;5091195;28;20284;-70
2023/08/07 00:58:29;;;;;;;2.83;1.50;;;;;;;15.62;60.69;97340.03;5086424;28;20503;-68
2023/08/07 01:00:55;;;;;;;4.80;2.00;;;;;;;15.55;60.56;97346.19;5092176;28;20201;-69
2023/08/07 01:03:20;;;;;;;6.03;1.60;;;;;;;15.59;60.50;97344.84;5081863;28;20424;-68
2023/08/07 01:05:46;;;;;;;3.97;2.03;;;;;;;15.65;60.61;97342.31;5081961;28;20249;-69
2023/08/07 01:08:11;;;;;;;2.17;1.70;;;;;;;15.59;60.49;97343.00;5078161;28;20193;-67
2023/08/07 01:11:12;;;;;;;4.83;1.80;;;;;;;15.55;60.23;97343.56;5088640;28;20233;-68
2023/08/07 01:13:50;;;;;;;2.70;1.70;;;;;;;15.58;60.42;97351.13;5094489;28;20184;-71
2023/08/07 01:16:33;;;;;;;2.50;1.70;;;;;;;15.47;60.21;97353.22;5088760;28;20795;-68
2023/08/07 01:19:00;;;;;;;3.83;1.67;;;;;;;15.55;60.18;97347.03;5103849;28;20788;-67
2023/08/07 01:21:25;;;;;;;2.30;1.87;;;;;;;15.62;60.51;97355.88;5085644;28;20444;-68
2023/08/07 01:23:51;;;;;;;2.40;1.40;;;;;;;15.66;60.81;97349.22;5090246;28;20523;-68
2023/08/07 01:26:18;;;;;;;5.07;1.60;;;;;;;15.69;60.60;97353.31;5097787;28;20182;-69
2023/08/07 01:29:05;;;;;;;2.93;1.70;;;;;;;15.67;60.89;97355.31;5083067;28;20682;-68
2023/08/07 01:31:33;;;;;;;4.40;1.73;;;;;;;15.71;60.41;97358.41;5099424;28;20451;-68
2023/08/07 01:34:03;;;;;;;1.83;1.50;;;;;;;15.71;60.57;97353.97;5070718;28;20441;-70
2023/08/07 01:36:29;;;;;;;2.50;1.60;;;;;;;15.70;60.34;97352.31;5091561;28;20521;-70
2023/08/07 01:38:57;;;;;;;1.60;1.50;;;;;;;15.71;60.21;97351.31;5092567;28;20451;-69
2023/08/07 01:41:23;;;;;;;3.53;1.73;;;;;;;15.70;60.33;97354.97;5082894;28;20442;-68
2023/08/07 01:43:48;;;;;;;3.23;1.47;;;;;;;15.69;60.46;97358.59;5088239;28;20416;-69
2023/08/07 01:46:13;;;;;;;5.30;1.67;;;;;;;15.67;60.49;97355.31;5083573;28;20265;-71
2023/08/07 01:48:39;;;;;;;3.37;1.83;;;;;;;15.69;60.42;97355.97;5089520;28;20278;-68
2023/08/07 01:51:04;;;;;;;6.57;1.70;;;;;;;15.65;60.30;97352.03;5080168;28;20204;-69
2023/08/07 01:53:30;;;;;;;3.47;1.60;;;;;;;15.68;60.22;97358.81;5086404;28;20273;-70
2023/08/07 01:55:55;;;;;;;4.37;1.60;;;;;;;15.68;59.88;97359.59;5086067;28;20226;-69
2023/08/07 01:58:21;;;;;;;3.50;1.80;;;;;;;15.55;59.87;97360.25;5081197;28;20698;-69
2023/08/07 02:00:46;;;;;;;3.87;1.60;;;;;;;15.53;59.93;97356.97;5092992;28;20284;-71
2023/08/07 02:06:55;;;;;;;2.97;1.73;;;;;;;15.52;59.92;97360.59;5083469;28;20174;-67
2023/08/07 02:09:21;;;;;;;1.83;1.57;;;;;;;15.42;59.06;97352.94;5074679;28;20436;-68
2023/08/07 02:11:46;;;;;;;3.33;1.70;;;;;;;15.45;58.56;97360.50;5074994;28;20473;-68
2023/08/07 02:14:11;;;;;;;2.07;1.63;;;;;;;15.43;58.79;97362.50;5083009;28;20259;-68
2023/08/07 02:16:37;;;;;;;1.70;1.40;;;;;;;15.48;58.77;97368.06;5087338;28;20254;-69
2023/08/07 02:19:02;;;;;;;2.60;1.70;;;;;;;15.48;58.89;97364.59;5086167;28;20184;-66
2023/08/07 02:21:28;;;;;;;3.00;2.00;;;;;;;15.44;58.76;97365.94;5094900;28;20852;-67
2023/08/07 02:23:53;;;;;;;3.93;1.93;;;;;;;15.46;58.86;97372.69;5076151;28;20238;-69
2023/08/07 02:26:19;;;;;;;2.70;1.60;;;;;;;15.42;58.91;97381.16;5087685;28;20283;-69
2023/08/07 02:28:44;;;;;;;2.67;1.50;;;;;;;15.46;58.72;97377.97;5076413;28;20312;-69
2023/08/07 02:31:09;;;;;;;3.07;1.73;;;;;;;15.39;58.61;97382.31;5086910;28;20240;-69
2023/08/07 02:33:35;;;;;;;2.53;1.50;;;;;;;15.41;58.54;97379.53;5087004;28;20181;-68
2023/08/07 02:36:00;;;;;;;2.93;2.50;;;;;;;15.45;58.72;97391.34;5086743;28;20258;-67
2023/08/07 02:38:26;;;;;;;3.23;1.43;;;;;;;15.46;58.21;97380.63;5091672;28;20261;-68
2023/08/07 02:40:51;;;;;;;3.97;2.10;;;;;;;15.35;57.88;97386.34;5084421;28;20201;-67
2023/08/07 02:43:17;;;;;;;6.33;1.70;;;;;;;15.31;57.74;97377.94;5090080;28;20197;-66
2023/08/07 02:45:42;;;;;;;7.90;1.67;;;;;;;15.35;57.33;97391.63;5087637;28;20193;-68
2023/08/07 02:48:08;;;;;;;4.87;1.70;;;;;;;15.29;57.47;97377.31;5087176;28;20177;-66
2023/08/07 02:50:33;;;;;;;3.90;1.80;;;;;;;15.35;57.40;97381.06;5087028;28;20741;-68
2023/08/07 02:53:00;;;;;;;4.17;1.90;;;;;;;15.35;57.42;97378.41;5089276;28;20661;-69
2023/08/07 02:55:25;;;;;;;3.93;2.10;;;;;;;15.25;56.81;97369.94;5089800;28;20212;-69
2023/08/07 02:57:51;;;;;;;3.60;1.70;;;;;;;15.21;57.26;97380.00;5093193;28;20488;-70
2023/08/07 03:00:16;;;;;;;6.50;1.87;;;;;;;15.25;57.03;97381.31;5088516;28;20232;-69
2023/08/07 03:02:42;;;;;;;2.67;1.70;;;;;;;15.25;56.67;97381.31;5087370;28;20223;-68
2023/08/07 03:05:08;;;;;;;5.90;2.27;;;;;;;15.19;56.95;97382.84;5088788;28;20276;-69
2023/08/07 03:07:33;;;;;;;3.67;2.17;;;;;;;15.26;56.96;97385.59;5078876;28;20273;-70
2023/08/07 03:09:59;;;;;;;2.40;2.10;;;;;;;15.26;56.89;97377.66;5085269;28;20872;-68
2023/08/07 03:12:24;;;;;;;6.43;1.87;;;;;;;15.25;56.90;97383.94;5088975;28;20253;-69
2023/08/07 03:14:50;;;;;;;4.60;2.20;;;;;;;15.29;56.57;97387.03;5086517;28;20272;-70
2023/08/07 03:17:15;;;;;;;10.83;2.27;;;;;;;15.26;56.76;97390.88;5087324;28;20206;-68
2023/08/07 03:19:43;;;;;;;4.53;1.80;;;;;;;15.23;56.76;97400.97;5087404;28;20224;-70
2023/08/07 03:22:08;;;;;;;4.40;2.00;;;;;;;15.23;56.71;97398.31;5088930;28;20182;-70
2023/08/07 03:24:34;;;;;;;3.00;1.40;;;;;;;15.15;56.56;97392.09;5071325;28;20442;-70
2023/08/07 03:26:59;;;;;;;4.47;1.73;;;;;;;15.18;56.71;97396.22;5071050;28;20177;-69
2023/08/07 03:29:25;;;;;;;5.30;2.07;;;;;;;15.11;56.90;97395.25;5093404;28;20744;-69
2023/08/07 03:31:50;;;;;;;6.40;1.90;;;;;;;15.06;56.96;97403.72;5091175;28;20224;-69
2023/08/07 03:34:15;;;;;;;2.20;1.80;;;;;;;15.06;56.96;97398.44;5085159;28;20281;-68
2023/08/07 03:36:41;;;;;;;6.73;1.90;;;;;;;14.97;57.20;97404.78;5085292;28;20285;-68
2023/08/07 03:39:07;;;;;;;8.03;2.07;;;;;;;14.95;57.35;97401.50;5089176;28;20662;-69
2023/08/07 03:41:32;;;;;;;2.90;1.80;;;;;;;14.95;57.57;97394.38;5090504;28;20212;-68
2023/08/07 03:43:58;;;;;;;2.67;1.70;;;;;;;14.98;57.64;97399.31;5087569;28;20462;-69
2023/08/07 03:46:23;;;;;;;4.50;2.00;;;;;;;14.99;57.43;97403.59;5092777;28;20277;-68
2023/08/07 03:48:49;;;;;;;4.83;2.00;;;;;;;15.00;57.30;97407.88;5089260;28;20213;-68
2023/08/07 03:51:16;;;;;;;4.67;1.73;;;;;;;14.95;57.32;97397.03;5080325;28;20193;-68
2023/08/07 03:53:42;;;;;;;4.23;1.97;;;;;;;15.04;57.12;97408.34;5089865;28;20181;-69
2023/08/07 03:56:07;;;;;;;6.10;2.30;;;;;;;14.99;57.24;97405.44;5086463;28;20458;-69
2023/08/07 03:58:32;;;;;;;3.80;1.57;;;;;;;14.98;57.21;97406.44;5088325;28;20185;-67
2023/08/07 04:00:58;;;;;;;3.40;1.80;;;;;;;14.96;57.25;97403.13;5093764;28;20387;-69
2023/08/07 04:03:23;;;;;;;2.60;1.50;;;;;;;14.96;57.19;97409.22;5095405;28;20254;-69
2023/08/07 04:05:53;;;;;;;4.17;1.73;;;;;;;14.97;57.38;97402.94;5090594;28;20189;-70
2023/08/07 04:08:19;;;;;;;2.60;1.73;;;;;;;14.93;57.39;97414.03;5078490;28;21289;-69
2023/08/07 04:10:44;;;;;;;4.57;2.00;;;;;;;14.96;57.46;97405.78;5087770;28;20974;-70
2023/08/07 04:13:10;;;;;;;2.87;2.00;;;;;;;14.96;57.53;97403.13;5088727;28;20194;-69
2023/08/07 04:15:35;;;;;;;4.40;2.40;;;;;;;14.88;57.88;97401.38;5086619;28;20705;-68
2023/08/07 04:18:00;;;;;;;4.57;1.90;;;;;;;14.89;57.80;97400.38;5089048;28;20598;-70
2023/08/07 04:20:26;;;;;;;3.40;1.70;;;;;;;14.76;58.11;97400.13;5081442;28;20279;-67
2023/08/07 04:22:52;;;;;;;3.43;1.93;;;;;;;14.72;57.89;97392.56;5096678;28;20213;-68
2023/08/07 04:25:17;;;;;;;3.70;2.00;;;;;;;14.79;57.80;97400.59;5091962;28;20192;-67
2023/08/07 04:27:42;;;;;;;5.17;1.63;;;;;;;14.82;57.61;97400.25;5090731;28;20170;-68
2023/08/07 04:30:08;;;;;;;6.47;2.03;;;;;;;14.85;57.64;97407.81;5089439;28;20292;-69
2023/08/07 04:32:34;;;;;;;2.10;1.80;;;;;;;14.90;57.48;97405.47;5087049;28;20231;-68
2023/08/07 04:34:59;;;;;;;3.53;1.93;;;;;;;14.95;57.48;97409.41;5086737;28;20192;-68
2023/08/07 04:37:24;;;;;;;7.00;1.80;;;;;;;14.84;57.24;97406.19;5093831;28;20243;-68
2023/08/07 04:39:50;;;;;;;7.53;1.80;;;;;;;14.93;57.25;97406.94;5088482;28;20260;-68
2023/08/07 04:42:15;;;;;;;4.07;1.70;;;;;;;14.95;57.21;97412.84;5092913;28;20181;-68
2023/08/07 04:44:41;;;;;;;3.10;1.70;;;;;;;14.87;56.94;97412.91;5089566;28;20278;-68
2023/08/07 04:47:06;;;;;;;6.97;1.80;;;;;;;14.89;57.25;97413.56;5086137;28;20201;-69
2023/08/07 04:49:32;;;;;;;3.43;1.97;;;;;;;14.89;57.06;97410.94;5089358;28;20189;-68
2023/08/07 04:51:57;;;;;;;11.30;2.10;;;;;;;14.94;57.17;97415.69;5088330;28;20284;-67
2023/08/07 04:54:23;;;;;;;4.13;1.97;;;;;;;14.85;57.12;97421.00;5089883;28;20188;-68
2023/08/07 04:56:48;;;;;;;3.20;1.93;;;;;;;14.89;56.90;97421.47;5090224;28;20338;-67
2023/08/07 04:59:13;;;;;;;3.80;1.90;;;;;;;14.88;57.04;97423.28;5083997;28;20269;-68
2023/08/07 05:01:39;;;;;;;2.27;1.60;;;;;;;14.92;56.86;97429.06;5084240;28;20208;-68
2023/08/07 05:04:05;;;;;;;3.97;1.93;;;;;;;14.96;57.01;97429.53;5088788;28;20180;-67
2023/08/07 05:06:31;;;;;;;5.30;1.90;;;;;;;14.96;56.86;97424.25;5091380;28;20837;-69
2023/08/07 05:08:56;;;;;;;4.83;1.90;;;;;;;15.02;56.76;97428.81;5083781;28;20193;-69
2023/08/07 05:11:22;;;;;;;2.90;1.40;;;;;;;15.04;56.78;97429.47;5087424;28;20438;-69
2023/08/07 05:13:47;;;;;;;5.10;1.90;;;;;;;15.08;56.72;97429.94;5083678;28;20786;-70
2023/08/07 05:16:12;;;;;;;6.43;1.93;;;;;;;14.97;57.01;97426.69;5080085;28;20210;-70
2023/08/07 05:18:38;;;;;;;3.13;1.67;;;;;;;14.98;56.80;97423.06;5084499;28;20193;-68
2023/08/07 05:21:03;;;;;;;5.60;1.57;;;;;;;15.07;56.86;97428.28;5082709;28;20305;-70
2023/08/07 05:23:29;;;;;;;1.87;1.40;;;;;;;15.16;56.69;97429.88;5085043;28;20190;-68
2023/08/07 05:25:54;;;;;;;3.00;1.60;;;;;;;15.15;56.79;97434.31;5075712;28;20607;-69
2023/08/07 05:28:20;;;;;;;3.67;1.57;;;;;;;15.17;56.79;97427.06;5079356;28;20182;-71
2023/08/07 05:30:45;;;;;;;6.30;2.00;;;;;;;15.25;56.51;97433.28;5078934;28;20213;-69
2023/08/07 05:33:11;;;;;;;3.57;2.20;;;;;;;15.29;56.74;97432.75;5085311;28;20268;-70
2023/08/07 05:35:38;;;;;;;4.60;2.07;;;;;;;15.38;56.42;97437.97;5081419;28;20673;-72
2023/08/07 05:38:04;;;;;;;5.80;2.10;;;;;;;15.40;56.33;97442.06;5074767;28;20182;-72
2023/08/07 05:40:29;;;;;;;6.50;2.00;;;;;;;15.41;56.17;97448.19;5082286;28;20454;-69
2023/08/07 05:42:55;;;;;;;3.77;1.53;;;;;;;15.45;56.18;97450.28;5084865;28;20650;-69
2023/08/07 05:45:20;;;;;;;5.43;2.07;;;;;;;15.51;56.36;97444.28;5081899;28;20190;-68
2023/08/07 05:47:46;;;;;;;3.50;1.90;;;;;;;15.54;56.09;97447.56;5078336;28;20186;-68
2023/08/07 05:50:11;;;;;;;7.23;2.10;;;;;;;15.59;56.09;97446.03;5082414;28;20908;-68
2023/08/07 05:52:37;;;;;;;5.20;1.63;;;;;;;15.62;55.77;97455.44;5085711;28;20177;-69
2023/08/07 05:55:03;;;;;;;2.90;1.30;;;;;;;15.67;55.45;97461.00;5082443;28;20762;-67
2023/08/07 05:57:29;;;;;;;3.73;1.43;;;;;;;15.69;55.42;97466.94;5081221;28;20300;-70
2023/08/07 05:59:54;;;;;;;2.03;1.40;;;;;;;15.75;55.41;97460.09;5091448;28;20541;-69
2023/08/07 06:02:20;;;;;;;5.53;1.60;;;;;;;15.79;55.47;97462.22;5088035;28;20250;-69
2023/08/07 06:04:45;;;;;;;7.90;1.80;;;;;;;15.81;55.93;97457.56;5086622;28;20242;-70
2023/08/07 06:07:11;;;;;;;4.70;1.83;;;;;;;15.76;55.35;97462.56;5083801;28;20264;-66
2023/08/07 06:09:36;;;;;;;1.70;1.60;;;;;;;15.84;55.19;97469.59;5088964;28;20189;-68
2023/08/07 06:12:02;;;;;;;5.50;1.60;;;;;;;15.81;54.78;97467.34;5088886;28;20177;-71
2023/08/07 06:14:28;;;;;;;4.10;1.70;;;;;;;15.90;54.97;97468.94;5083015;28;20194;-68
2023/08/07 06:16:54;;;;;;;2.70;1.70;;;;;;;15.93;55.17;97481.78;5084230;28;20615;-68
2023/08/07 06:19:22;;;;;;;3.70;1.37;;;;;;;15.96;54.90;97477.94;5076632;28;20427;-68
2023/08/07 06:21:47;;;;;;;4.17;2.10;;;;;;;15.99;54.94;97487.34;5083120;28;20247;-69
2023/08/07 06:24:13;;;;;;;3.07;2.00;;;;;;;16.00;54.92;97489.81;5087471;28;20424;-69
2023/08/07 06:26:38;;;;;;;3.60;1.40;;;;;;;16.06;55.03;97494.38;5085607;28;20177;-68
2023/08/07 06:29:04;;;;;;;6.87;1.80;;;;;;;16.03;54.85;97489.44;5079669;28;20801;-68
2023/08/07 06:31:29;;;;;;;3.63;1.90;;;;;;;16.08;54.92;97496.81;5083891;28;20205;-69
2023/08/07 06:33:55;;;;;;;3.77;1.93;;;;;;;16.13;55.20;97483.91;5081701;28;20280;-71
2023/08/07 06:36:20;;;;;;;6.20;1.80;;;;;;;16.15;54.74;97496.94;5084113;28;20202;-69
2023/08/07 06:38:45;;;;;;;2.10;1.77;;;;;;;16.15;54.78;97494.28;5080275;28;20208;-69
2023/08/07 06:41:12;;;;;;;2.90;1.63;;;;;;;16.25;54.60;97492.22;5084747;28;20235;-69
2023/08/07 06:43:37;;;;;;;3.37;1.90;;;;;;;16.31;54.78;97496.75;5086530;28;20184;-69
2023/08/07 06:46:03;;;;;;;2.33;1.53;;;;;;;16.32;54.28;97487.03;5083110;28;20452;-68
2023/08/07 06:48:28;;;;;;;4.53;1.70;;;;;;;16.36;54.50;97494.41;5079920;28;20420;-69
2023/08/07 06:50:54;;;;;;;4.63;1.93;;;;;;;16.43;54.02;97492.66;5077586;28;20201;-70
2023/08/07 06:53:19;;;;;;;8.63;1.77;;;;;;;16.47;54.00;97482.53;5076880;28;20193;-68
2023/08/07 06:55:45;;;;;;;7.60;2.13;;;;;;;16.52;53.95;97492.56;5082314;28;20270;-70
2023/08/07 06:58:10;;;;;;;2.70;1.93;;;;;;;16.55;53.62;97497.50;5082924;28;20193;-69
2023/08/07 07:00:36;;;;;;;2.73;1.70;;;;;;;16.58;53.45;97503.22;5089615;28;20590;-70
2023/08/07 07:03:02;;;;;;;4.27;2.00;;;;;;;16.56;53.26;97505.25;5085283;28;20810;-69
2023/08/07 07:05:28;;;;;;;4.80;1.70;;;;;;;16.60;52.95;97489.84;5079882;28;20424;-70
2023/08/07 07:07:54;;;;;;;4.63;2.00;;;;;;;16.73;53.11;97494.47;5085603;28;20977;-70
2023/08/07 07:10:20;;;;;;;5.90;1.90;;;;;;;16.82;53.25;97501.28;5086467;28;20202;-71
2023/08/07 07:12:45;;;;;;;4.10;1.53;;;;;;;16.92;52.98;97502.84;5090116;28;20495;-69
2023/08/07 07:15:11;;;;;;;3.53;1.50;;;;;;;16.98;52.55;97497.66;5087494;28;20268;-70
2023/08/07 07:17:36;;;;;;;4.43;2.00;;;;;;;17.01;52.12;97501.75;5085512;28;20205;-69
2023/08/07 07:20:01;;;;;;;5.80;1.97;;;;;;;17.09;52.11;97506.13;5094004;28;20204;-70
2023/08/07 07:22:28;;;;;;;2.00;1.60;;;;;;;17.11;51.64;97501.47;5087928;28;20178;-71
2023/08/07 07:24:54;;;;;;;1.90;1.70;;;;;;;17.15;51.69;97500.06;5084613;28;20186;-70
2023/08/07 07:27:19;;;;;;;3.87;1.90;;;;;;;17.13;51.12;97508.19;5085230;28;20523;-69
2023/08/07 07:29:45;;;;;;;7.00;2.00;;;;;;;17.13;51.41;97510.84;5082205;28;20602;-69
2023/08/07 07:32:10;;;;;;;2.53;1.80;;;;;;;17.14;51.29;97517.78;5092248;27;20295;-70
2023/08/07 07:34:36;;;;;;;3.70;2.30;;;;;;;17.16;51.06;97510.47;5086257;28;20257;-69
2023/08/07 07:37:01;;;;;;;1.93;1.73;;;;;;;17.24;50.89;97519.31;5088643;28;20242;-69
2023/08/07 07:39:26;;;;;;;10.50;1.87;;;;;;;17.39;50.56;97503.38;5085283;28;20217;-69
2023/08/07 07:41:52;;;;;;;7.43;2.07;;;;;;;17.66;50.40;97497.31;5088742;28;20206;-70
2023/08/07 07:44:17;;;;;;;2.50;1.50;;;;;;;17.85;49.74;97502.97;5087177;28;20682;-68
2023/08/07 07:46:43;;;;;;;2.90;1.70;;;;;;;17.94;49.22;97509.78;5087093;28;20633;-69
2023/08/07 07:49:08;;;;;;;3.67;1.50;;;;;;;18.06;48.90;97511.94;5080067;28;20810;-72
2023/08/07 07:51:35;;;;;;;2.73;1.70;;;;;;;18.11;46.75;97505.03;5088816;28;20210;-68
2023/08/07 07:54:00;;;;;;;5.10;1.40;;;;;;;18.22;45.58;97509.00;5085670;28;20272;-71
2023/08/07 07:56:26;;;;;;;1.63;1.40;;;;;;;18.44;45.68;97506.25;5080321;28;20547;-70
2023/08/07 07:58:51;;;;;;;4.70;1.40;;;;;;;18.47;45.26;97505.88;5080673;28;20232;-68
2023/08/07 08:01:18;;;;;;;1.77;1.23;;;;;;;18.56;45.52;97510.00;5085764;28;20266;-71
2023/08/07 08:03:43;;;;;;;2.40;1.27;;;;;;;18.58;45.38;97505.31;5081581;28;20194;-71
2023/08/07 08:06:11;;;;;;;3.53;1.73;;;;;;;18.64;45.71;97524.94;5088714;28;21046;-69
2023/08/07 08:08:37;;;;;;;1.90;1.47;;;;;;;18.68;45.94;97528.88;5086159;28;20564;-69
2023/08/07 08:11:02;;;;;;;2.47;1.60;;;;;;;18.69;45.82;97524.34;5082425;28;20441;-68
2023/08/07 08:13:28;;;;;;;1.77;1.60;;;;;;;18.56;44.38;97533.88;5082419;28;20673;-69
2023/08/07 08:15:53;;;;;;;2.60;1.40;;;;;;;18.56;44.73;97541.84;5085430;28;20197;-69
2023/08/07 08:18:18;;;;;;;2.70;1.67;;;;;;;18.51;44.07;97531.03;5083284;28;20182;-68
2023/08/07 08:20:44;;;;;;;4.70;1.40;;;;;;;18.42;43.53;97532.16;5082938;28;20289;-69
2023/08/07 08:23:09;;;;;;;3.33;1.60;;;;;;;18.39;44.00;97535.22;5083110;28;20189;-69
2023/08/07 08:25:35;;;;;;;1.87;1.70;;;;;;;18.32;43.74;97542.31;5080423;28;20323;-69
2023/08/07 08:28:00;;;;;;;1.97;1.50;;;;;;;18.41;44.42;97535.81;5077446;28;20270;-69
2023/08/07 08:30:26;;;;;;;2.43;1.33;;;;;;;18.52;44.11;97545.94;5080386;28;20861;-67
2023/08/07 08:32:51;;;;;;;1.30;1.20;;;;;;;18.60;43.92;97534.31;5076552;28;21840;-71
2023/08/07 08:35:17;;;;;;;4.23;1.43;;;;;;;18.69;43.97;97540.28;5079932;28;20175;-70
2023/08/07 08:37:42;;;;;;;3.43;1.60;;;;;;;18.80;43.16;97542.38;5081985;28;20368;-68
2023/08/07 08:40:18;;;;;;;2.73;1.30;;;;;;;19.01;42.42;97538.03;5081237;28;20198;-68
2023/08/07 08:42:44;;;;;;;3.30;1.50;;;;;;;19.28;40.21;97548.75;5087177;28;20178;-70
2023/08/07 08:45:11;;;;;;;1.70;1.40;;;;;;;19.66;39.85;97550.84;5092211;28;20903;-69
2023/08/07 08:47:38;;;;;;;2.60;1.17;;;;;;;19.93;39.32;97540.28;5080479;28;20801;-70
2023/08/07 08:50:09;;;;;;;3.20;1.20;;;;;;;20.31;39.74;97552.16;5072047;28;20447;-71
2023/08/07 08:52:44;;;;;;;2.57;1.20;;;;;;;20.46;37.85;97549.25;5085587;28;20464;-68
2023/08/07 08:55:10;;;;;;;2.23;1.30;;;;;;;20.47;38.24;97556.22;5078462;28;20967;-73
2023/08/07 08:57:37;;;;;;;3.97;1.10;;;;;;;20.85;37.86;97558.19;5082291;28;20879;-69
2023/08/07 09:00:14;;;;;;;1.97;1.30;;;;;;;21.10;37.69;97557.50;5083259;28;20452;-68
2023/08/07 09:02:39;;;;;;;1.90;1.30;;;;;;;21.38;37.35;97540.34;5082400;28;20428;-69
2023/08/07 09:05:05;;;;;;;2.80;1.23;;;;;;;21.54;37.64;97555.03;5082193;28;20500;-68
2023/08/07 09:07:31;;;;;;;3.83;1.30;;;;;;;21.64;37.41;97550.06;5087728;28;20178;-69
2023/08/07 09:09:57;;;;;;;3.17;1.30;;;;;;;21.56;37.45;97558.28;5087431;28;20263;-70
2023/08/07 09:12:26;;;;;;;1.80;1.10;;;;;;;21.55;37.48;97552.13;5091040;28;20223;-72
2023/08/07 09:14:56;;;;;;;2.03;1.23;;;;;;;21.32;37.90;97548.16;5087376;28;20853;-69
2023/08/07 09:17:24;;;;;;;3.47;1.30;;;;;;;21.33;38.11;97565.00;5090047;28;20479;-68
2023/08/07 09:19:51;;;;;;;1.70;1.30;;;;;;;21.35;39.11;97546.09;5088826;28;20424;-69
2023/08/07 09:22:19;;;;;;;1.70;1.13;;;;;;;21.38;38.83;97564.34;5094245;28;20464;-71
2023/08/07 09:24:44;;;;;;;1.87;1.10;;;;;;;21.42;38.29;97555.72;5075430;28;21055;-67
2023/08/07 09:27:10;;;;;;;2.37;1.23;;;;;;;21.35;38.00;97559.44;5089457;28;20424;-67
2023/08/07 09:29:35;;;;;;;2.80;1.37;;;;;;;21.25;37.14;97568.72;5077883;28;20220;-69
2023/08/07 09:32:27;;;;;;;1.73;1.17;;;;;;;21.16;37.56;97562.81;5086797;28;20224;-70
2023/08/07 09:34:53;;;;;;;1.50;1.10;;;;;;;21.21;37.45;97556.03;5090919;28;20234;-71
2023/08/07 09:37:18;;;;;;;1.60;1.10;;;;;;;21.20;37.70;97570.38;5094328;28;21172;-70
2023/08/07 09:39:44;;;;;;;1.33;1.23;;;;;;;21.23;37.79;97569.97;5087040;28;20538;-70
2023/08/07 09:42:16;;;;;;;2.90;1.03;;;;;;;21.30;38.18;97587.53;5092604;28;20222;-68
2023/08/07 09:44:42;;;;;;;2.20;1.10;;;;;;;21.24;37.20;97567.06;5081616;28;20239;-71
2023/08/07 09:47:13;;;;;;;1.40;1.10;;;;;;;21.23;37.19;97581.44;5087522;28;20430;-71
2023/08/07 09:49:39;;;;;;;6.40;1.40;;;;;;;21.26;37.64;97578.34;5098809;28;20907;-69
2023/08/07 09:52:10;;;;;;;1.30;1.00;;;;;;;21.29;37.12;97590.44;5084948;28;20559;-69
2023/08/07 09:54:36;;;;;;;1.53;1.17;;;;;;;21.29;36.99;97585.94;5078516;28;20312;-69
2023/08/07 09:57:02;;;;;;;2.40;1.30;;;;;;;21.40;37.33;97581.75;5081399;28;21117;-69
2023/08/07 09:59:27;;;;;;;3.83;1.50;;;;;;;21.44;37.23;97592.81;5079308;28;20522;-69
2023/08/07 10:01:54;;;;;;;2.10;1.27;;;;;;;21.47;37.43;97592.38;5080343;28;20342;-72
2023/08/07 10:04:20;;;;;;;1.30;1.20;;;;;;;21.43;37.40;97600.00;5078106;28;20185;-70
2023/08/07 10:06:46;;;;;;;3.10;1.43;;;;;;;21.41;36.89;97599.38;5080713;28;20411;-70
2023/08/07 10:09:11;;;;;;;3.13;1.20;;;;;;;21.48;37.10;97597.50;5078975;28;20423;-69
2023/08/07 10:11:38;;;;;;;1.93;1.40;;;;;;;21.55;37.30;97589.47;5082767;28;20292;-72
2023/08/07 10:14:04;;;;;;;2.80;1.43;;;;;;;21.70;37.40;97583.88;5083656;28;20182;-69
2023/08/07 10:16:30;;;;;;;3.73;1.57;;;;;;;21.98;37.52;97593.34;5075685;28;20463;-70
2023/08/07 10:18:55;;;;;;;1.40;1.20;;;;;;;22.15;36.26;97576.78;5081037;28;20784;-73
2023/08/07 10:21:22;;;;;;;1.53;1.20;;;;;;;22.15;35.85;97582.13;5082121;28;20441;-68
2023/08/07 10:23:48;;;;;;;1.83;1.40;;;;;;;22.22;35.53;97589.03;5083639;28;20190;-68
2023/08/07 10:26:14;;;;;;;1.40;1.23;;;;;;;22.12;35.00;97593.22;5076446;28;20427;-69
2023/08/07 10:28:40;;;;;;;1.20;1.03;;;;;;;22.00;35.25;97606.47;5083153;28;20439;-69
2023/08/07 10:31:07;;;;;;;2.30;1.37;;;;;;;21.98;35.76;97601.34;5082535;28;20456;-70
2023/08/07 10:33:32;;;;;;;1.20;1.10;;;;;;;21.91;35.26;97588.06;5082194;28;20792;-69
2023/08/07 10:35:59;;;;;;;1.70;1.20;;;;;;;21.84;34.90;97597.13;5080627;28;20428;-70
2023/08/07 10:38:25;;;;;;;3.67;1.20;;;;;;;21.85;35.36;97596.91;5084689;28;20562;-69
2023/08/07 10:41:03;;;;;;;2.87;1.47;;;;;;;21.71;35.20;97603.38;5085415;28;20434;-69
2023/08/07 10:43:30;;;;;;;1.30;1.20;;;;;;;21.69;35.63;97594.75;5087958;28;20238;-69
2023/08/07 10:46:15;;;;;;;3.57;1.17;;;;;;;21.75;35.73;97609.91;5083755;28;20426;-69
2023/08/07 10:48:47;;;;;;;1.53;1.40;;;;;;;21.65;35.05;97599.69;5082226;28;20427;-69
2023/08/07 10:51:18;;;;;;;3.27;1.63;;;;;;;21.57;35.08;97603.41;5091974;28;20569;-69
2023/08/07 10:53:48;;;;;;;1.87;1.43;;;;;;;21.46;34.68;97602.25;5075857;28;20413;-69
2023/08/07 10:56:44;;;;;;;4.13;1.50;;;;;;;21.58;35.70;97605.03;5084356;28;20452;-68
2023/08/07 10:59:10;;;;;;;1.97;1.47;;;;;;;21.87;36.11;97600.19;5087597;28;20418;-71
2023/08/07 11:01:38;;;;;;;2.17;1.70;;;;;;;21.97;35.86;97604.22;5078616;28;20467;-70
2023/08/07 11:04:09;;;;;;;2.27;1.30;;;;;;;22.06;36.21;97608.25;5080817;28;20457;-69
2023/08/07 11:06:35;;;;;;;4.43;1.80;;;;;;;22.16;35.54;97611.28;5074046;28;20992;-69
2023/08/07 11:09:03;;;;;;;3.10;1.50;;;;;;;22.52;35.28;97596.44;5080413;28;20424;-70
2023/08/07 11:11:29;;;;;;;4.27;1.70;;;;;;;22.92;34.98;97607.75;5083896;28;20444;-70
2023/08/07 11:13:55;;;;;;;1.70;1.37;;;;;;;22.98;34.25;97601.50;5080742;28;20477;-70
2023/08/07 11:16:21;;;;;;;1.50;1.20;;;;;;;22.84;34.48;97609.66;5075901;28;20546;-69
2023/08/07 11:18:47;;;;;;;2.40;1.50;;;;;;;22.55;34.68;97614.69;5081266;28;20733;-70
2023/08/07 11:21:12;;;;;;;2.73;1.40;;;;;;;22.27;35.12;97617.75;5078072;28;20324;-70
2023/08/07 11:23:39;;;;;;;3.40;1.63;;;;;;;22.00;35.79;97612.59;5045285;28;20553;-70
2023/08/07 11:26:05;;;;;;;2.70;1.90;;;;;;;21.86;36.27;97611.88;5073255;28;20197;-70
2023/08/07 11:28:30;;;;;;;3.90;1.60;;;;;;;21.69;36.88;97616.09;5078939;28;20420;-72
2023/08/07 11:30:56;;;;;;;2.10;1.63;;;;;;;21.51;37.41;97614.09;5076157;28;20213;-70
2023/08/07 11:33:24;;;;;;;1.60;1.47;;;;;;;21.32;37.69;97617.47;5076548;28;20190;-68